createdAt,value
2022-10-28T00:01:06.704Z,23.30
2022-10-28T00:03:47.712Z,23.30
2022-10-28T00:06:18.389Z,23.30
2022-10-28T00:08:53.898Z,23.30
2022-10-28T00:12:19.575Z,23.30
2022-10-28T00:14:53.289Z,23.30
2022-10-28T00:17:20.405Z,23.30
2022-10-28T00:19:52.853Z,23.30
2022-10-28T00:22:19.857Z,23.30
2022-10-28T00:25:50.727Z,23.30
2022-10-28T00:28:18.021Z,23.20
2022-10-28T00:30:52.918Z,23.20
2022-10-28T00:33:19.996Z,23.20
2022-10-28T00:35:54.441Z,23.20
2022-10-28T00:42:03.825Z,23.30
2022-10-28T00:44:59.511Z,23.20
2022-10-28T00:47:45.960Z,23.20
2022-10-28T00:50:20.858Z,23.30
2022-10-28T00:52:53.813Z,23.30
2022-10-28T00:56:33.436Z,23.30
2022-10-28T00:59:04.044Z,23.30
2022-10-28T01:01:34.357Z,23.30
2022-10-28T01:04:01.751Z,23.30
2022-10-28T01:06:40.592Z,23.20
2022-10-28T01:09:07.603Z,23.30
2022-10-28T01:15:52.643Z,23.30
2022-10-28T01:18:49.322Z,23.20
2022-10-28T01:21:56.057Z,23.20
2022-10-28T01:28:38.034Z,23.20
2022-10-28T01:31:42.011Z,23.20
2022-10-28T01:34:33.784Z,23.20
2022-10-28T01:37:28.463Z,23.20
2022-10-28T01:40:15.341Z,23.20
2022-10-28T01:42:54.726Z,23.20
2022-10-28T01:45:31.055Z,23.20
2022-10-28T01:51:55.679Z,23.20
2022-10-28T01:54:27.025Z,23.20
2022-10-28T01:56:57.212Z,23.20
2022-10-28T01:59:27.028Z,23.20
2022-10-28T02:01:54.842Z,23.20
2022-10-28T02:05:17.070Z,23.20
2022-10-28T02:07:54.511Z,23.20
2022-10-28T02:10:25.109Z,23.20
2022-10-28T02:12:56.675Z,23.20
2022-10-28T02:15:47.310Z,23.20
2022-10-28T02:22:45.318Z,23.20
2022-10-28T02:25:40.569Z,23.20
2022-10-28T02:28:20.407Z,23.20
2022-10-28T02:31:02.472Z,23.20
2022-10-28T02:33:33.657Z,23.20
2022-10-28T02:37:02.878Z,23.20
2022-10-28T02:39:38.933Z,23.20
2022-10-28T02:42:15.349Z,23.20
2022-10-28T02:44:56.293Z,23.20
2022-10-28T02:47:27.756Z,23.20
2022-10-28T02:50:52.015Z,23.20
2022-10-28T02:53:53.386Z,23.20
2022-10-28T02:56:22.004Z,23.20
2022-10-28T02:58:52.177Z,23.20
2022-10-28T03:01:19.341Z,23.20
2022-10-28T03:07:36.974Z,23.20
2022-10-28T03:10:04.488Z,23.20
2022-10-28T03:12:31.501Z,23.20
2022-10-28T03:14:58.615Z,23.20
2022-10-28T03:17:25.739Z,23.20
2022-10-28T03:20:49.863Z,23.10
2022-10-28T03:23:16.974Z,23.10
2022-10-28T03:25:43.974Z,23.10
2022-10-28T03:28:11.079Z,23.10
2022-10-28T03:30:38.154Z,23.10
2022-10-28T03:33:52.764Z,23.10
2022-10-28T03:36:19.767Z,23.20
2022-10-28T03:38:46.872Z,23.20
2022-10-28T03:41:16.585Z,23.20
2022-10-28T03:43:44.266Z,23.10
2022-10-28T03:46:11.359Z,23.20
2022-10-28T03:49:41.173Z,23.20
2022-10-28T03:52:08.152Z,23.20
2022-10-28T03:54:35.156Z,23.10
2022-10-28T03:57:24.017Z,23.20
2022-10-28T03:59:51.035Z,23.10
2022-10-28T04:02:18.388Z,23.20
2022-10-28T04:04:45.579Z,23.10
2022-10-28T04:08:17.867Z,23.10
2022-10-28T04:10:53.228Z,23.10
2022-10-28T04:13:20.241Z,23.10
2022-10-28T04:15:47.255Z,23.20
2022-10-28T04:18:14.268Z,23.10
2022-10-28T04:24:40.697Z,23.10
2022-10-28T04:27:07.769Z,23.10
2022-10-28T04:29:34.877Z,23.10
2022-10-28T04:32:02.569Z,23.20
2022-10-28T04:35:18.400Z,23.10
2022-10-28T04:37:45.404Z,23.10
2022-10-28T04:40:12.920Z,23.10
2022-10-28T04:42:40.014Z,23.10
2022-10-28T04:45:07.785Z,23.10
2022-10-28T04:51:15.751Z,23.10
2022-10-28T04:53:42.746Z,23.10
2022-10-28T04:56:16.100Z,23.10
2022-10-28T04:58:43.109Z,23.10
2022-10-28T05:02:22.849Z,23.10
2022-10-28T05:04:50.099Z,23.10
2022-10-28T05:07:19.900Z,23.00
2022-10-28T05:09:49.776Z,23.00
2022-10-28T05:12:30.241Z,23.00
2022-10-28T05:27:53.205Z,23.00
2022-10-28T05:30:20.708Z,23.00
2022-10-28T05:33:01.955Z,23.00
2022-10-28T05:35:30.799Z,23.00
2022-10-28T05:37:58.415Z,23.00
2022-10-28T05:40:25.898Z,23.10
2022-10-28T05:42:53.234Z,23.10
2022-10-28T05:45:20.732Z,23.10
2022-10-28T05:47:48.834Z,23.10
2022-10-28T05:50:18.143Z,23.10
2022-10-28T05:52:54.499Z,23.10
2022-10-28T05:55:23.118Z,23.10
2022-10-28T05:57:51.787Z,23.10
2022-10-28T06:00:27.369Z,23.10
2022-10-28T06:03:09.518Z,23.10
2022-10-28T06:05:39.537Z,23.20
2022-10-28T06:08:06.711Z,23.10
2022-10-28T06:10:33.941Z,23.10
2022-10-28T06:12:59.593Z,23.20
2022-10-28T06:15:26.630Z,23.20
2022-10-28T06:17:53.750Z,23.20
2022-10-28T06:20:20.805Z,23.20
2022-10-28T06:22:49.950Z,23.20
2022-10-28T06:25:18.149Z,23.20
2022-10-28T06:27:50.795Z,23.20
2022-10-28T07:19:17.922Z,23.50
2022-10-28T07:21:48.377Z,23.60
2022-10-28T07:24:15.450Z,23.60
2022-10-28T07:26:42.463Z,23.60
2022-10-28T07:29:09.461Z,23.70
2022-10-28T07:31:36.431Z,23.70
2022-10-28T07:34:03.464Z,23.80
2022-10-28T07:36:30.525Z,23.80
2022-10-28T07:38:57.576Z,23.90
2022-10-28T07:41:24.809Z,23.90
2022-10-28T07:54:17.087Z,24.10
2022-10-28T07:56:44.122Z,24.10
2022-10-28T07:59:11.133Z,24.20
2022-10-28T08:01:38.310Z,24.20
2022-10-28T08:04:05.505Z,24.30
2022-10-28T08:06:34.843Z,24.30
2022-10-28T08:09:01.851Z,24.30
2022-10-28T08:11:28.901Z,24.40
2022-10-28T08:13:56.500Z,24.40
2022-10-28T08:16:23.840Z,24.40
2022-10-28T08:18:50.989Z,24.50
2022-10-28T08:21:18.139Z,24.50
2022-10-28T08:23:46.972Z,24.50
2022-10-28T08:26:46.356Z,24.50
2022-10-28T08:38:08.429Z,24.70
2022-10-28T08:41:05.724Z,24.70
2022-10-28T08:44:12.450Z,24.80
2022-10-28T08:47:07.906Z,24.80
2022-10-28T08:49:39.878Z,24.90
2022-10-28T08:52:24.377Z,24.90
2022-10-28T08:55:56.859Z,24.90
2022-10-28T08:58:34.911Z,24.90
2022-10-28T09:01:03.774Z,25.00
2022-10-28T09:04:54.064Z,25.00
2022-10-28T09:07:22.516Z,25.00
2022-10-28T09:09:51.339Z,25.10
2022-10-28T09:16:31.573Z,25.10
2022-10-28T09:19:04.625Z,25.10
2022-10-28T09:21:40.025Z,25.10
2022-10-28T09:24:51.017Z,25.10
2022-10-28T09:27:43.924Z,25.20
2022-10-28T09:30:31.109Z,25.20
2022-10-28T09:33:37.824Z,25.20
2022-10-28T09:36:13.101Z,25.30
2022-10-28T09:38:41.142Z,25.30
2022-10-28T09:41:22.539Z,25.30
2022-10-28T09:43:55.069Z,25.40
2022-10-28T09:46:24.334Z,25.40
2022-10-28T09:48:55.821Z,25.40
2022-10-28T09:58:07.902Z,25.50
2022-10-28T10:00:35.065Z,25.50
2022-10-28T10:03:02.100Z,25.50
2022-10-28T10:05:31.209Z,25.50
2022-10-28T10:08:03.628Z,25.50
2022-10-28T10:10:48.059Z,25.50
2022-10-28T10:13:18.013Z,25.50
2022-10-28T10:15:49.215Z,25.60
2022-10-28T10:18:30.339Z,25.50
2022-10-28T10:21:01.640Z,25.50
2022-10-28T10:23:31.809Z,25.50
2022-10-28T10:26:08.097Z,25.50
2022-10-28T10:28:47.509Z,25.50
2022-10-28T10:40:19.585Z,25.40
2022-10-28T10:42:57.633Z,25.40
2022-10-28T10:53:26.952Z,25.40
2022-10-28T10:55:55.986Z,25.40
2022-10-28T11:06:18.459Z,25.40
2022-10-28T11:08:44.340Z,25.40
2022-10-28T11:11:14.895Z,25.50
2022-10-28T11:14:53.985Z,25.50
2022-10-28T11:17:25.909Z,25.50
2022-10-28T11:30:14.500Z,25.60
2022-10-28T11:33:02.094Z,25.60
2022-10-28T11:36:03.242Z,25.60
2022-10-28T11:39:09.978Z,25.60
2022-10-28T11:52:00.554Z,25.60
2022-10-28T11:54:54.637Z,25.60
2022-10-28T11:57:48.888Z,25.70
2022-10-28T12:01:54.023Z,25.70
2022-10-28T12:08:27.343Z,25.80
2022-10-28T12:15:12.408Z,25.80
2022-10-28T12:18:08.649Z,25.80
2022-10-28T12:20:57.237Z,25.70
2022-10-28T12:23:56.402Z,25.70
2022-10-28T12:26:33.844Z,25.70
2022-10-28T12:32:44.136Z,25.70
2022-10-28T12:35:54.459Z,25.70
2022-10-28T12:38:41.152Z,25.60
2022-10-28T12:45:03.529Z,25.60
2022-10-28T12:47:55.797Z,25.60
2022-10-28T12:50:48.360Z,25.50
2022-10-28T12:57:29.156Z,25.50
2022-10-28T13:00:44.792Z,25.50
2022-10-28T13:03:15.980Z,25.50
2022-10-28T13:06:08.587Z,25.50
2022-10-28T13:09:00.381Z,25.50
2022-10-28T13:11:50.658Z,25.40
2022-10-28T13:14:24.573Z,25.50
2022-10-28T13:17:24.671Z,25.40
2022-10-28T13:20:27.745Z,25.50
2022-10-28T13:23:09.876Z,25.50
2022-10-28T13:26:06.309Z,25.50
2022-10-28T13:28:45.003Z,25.40
2022-10-28T13:31:12.436Z,25.40
2022-10-28T13:33:46.606Z,25.40
2022-10-28T13:36:26.075Z,25.40
2022-10-28T13:39:01.796Z,25.40
2022-10-28T13:41:38.084Z,25.40
2022-10-28T13:44:26.427Z,25.40
2022-10-28T13:47:21.872Z,25.40
2022-10-28T13:50:13.391Z,25.40
2022-10-28T13:52:45.328Z,25.30
2022-10-28T13:55:27.465Z,25.40
2022-10-28T13:58:05.226Z,25.30
2022-10-28T14:00:36.525Z,25.30
2022-10-28T14:03:16.259Z,25.30
2022-10-28T14:05:57.563Z,25.30
2022-10-28T14:08:41.781Z,25.30
2022-10-28T14:11:24.060Z,25.30
2022-10-28T14:13:54.722Z,25.30
2022-10-28T14:16:31.265Z,25.30
2022-10-28T14:19:17.494Z,25.30
2022-10-28T14:22:08.041Z,25.30
2022-10-28T14:24:38.012Z,25.30
2022-10-28T14:27:30.674Z,25.20
2022-10-28T14:30:14.812Z,25.20
2022-10-28T14:33:00.755Z,25.20
2022-10-28T14:35:33.949Z,25.20
2022-10-28T14:38:39.896Z,25.20
2022-10-28T14:41:31.619Z,25.20
2022-10-28T14:44:19.281Z,25.20
2022-10-28T14:47:12.719Z,25.20
2022-10-28T14:49:40.688Z,25.20
2022-10-28T14:52:19.164Z,25.10
2022-10-28T14:55:02.237Z,25.10
2022-10-28T14:57:33.923Z,25.10
2022-10-28T15:00:05.235Z,25.10
2022-10-28T15:02:35.625Z,25.00
2022-10-28T15:05:21.134Z,25.00
2022-10-28T15:07:48.642Z,25.00
2022-10-28T15:10:27.103Z,25.00
2022-10-28T15:12:56.446Z,24.90
2022-10-28T15:15:32.223Z,24.90
2022-10-28T15:18:00.377Z,24.90
2022-10-28T15:20:34.547Z,24.90
2022-10-28T15:23:16.892Z,24.90
2022-10-28T15:25:44.415Z,24.90
2022-10-28T15:28:12.448Z,24.80
2022-10-28T15:30:46.315Z,24.80
2022-10-28T15:33:36.730Z,24.80
2022-10-28T15:36:20.844Z,24.80
2022-10-28T15:39:05.001Z,24.70
2022-10-28T15:41:45.127Z,24.70
2022-10-28T15:44:30.801Z,24.70
2022-10-28T15:46:59.141Z,24.70
2022-10-28T15:49:34.230Z,24.70
2022-10-28T15:52:22.280Z,24.60
2022-10-28T15:55:00.855Z,24.60
2022-10-28T15:57:30.825Z,24.60
2022-10-28T16:00:22.243Z,24.60
2022-10-28T16:03:01.353Z,24.50
2022-10-28T16:05:46.167Z,24.50
2022-10-28T16:08:20.589Z,24.50
2022-10-28T16:10:54.799Z,24.50
2022-10-28T16:13:30.623Z,24.50
2022-10-28T16:16:04.417Z,24.40
2022-10-28T16:18:35.400Z,24.40
2022-10-28T16:21:05.057Z,24.40
2022-10-28T16:23:38.493Z,24.30
2022-10-28T16:26:05.929Z,24.30
2022-10-28T16:28:33.115Z,24.30
2022-10-28T16:31:01.953Z,24.30
2022-10-28T16:33:37.990Z,24.30
2022-10-28T16:36:05.190Z,24.30
2022-10-28T16:38:32.788Z,24.30
2022-10-28T16:41:01.274Z,24.30
2022-10-28T16:43:30.255Z,24.20
2022-10-28T16:45:59.867Z,24.20
2022-10-28T16:48:29.731Z,24.20
2022-10-28T16:51:00.503Z,24.20
2022-10-28T16:53:27.556Z,24.10
2022-10-28T16:55:59.077Z,24.20
2022-10-28T16:58:27.879Z,24.10
2022-10-28T17:00:56.056Z,24.10
2022-10-28T17:03:23.567Z,24.10
2022-10-28T17:05:50.683Z,24.10
2022-10-28T17:08:26.454Z,24.10
2022-10-28T17:11:04.810Z,24.10
2022-10-28T17:13:31.831Z,24.10
2022-10-28T17:15:58.814Z,24.10
2022-10-28T17:18:25.859Z,24.10
2022-10-28T17:21:01.213Z,24.10
2022-10-28T17:23:29.291Z,24.10
2022-10-28T17:25:58.479Z,24.10
2022-10-28T17:28:25.550Z,24.10
2022-10-28T17:30:52.824Z,24.10
2022-10-28T17:33:19.939Z,24.00
2022-10-28T17:35:46.999Z,24.00
2022-10-28T17:38:13.991Z,24.00
2022-10-28T17:40:41.047Z,24.00
2022-10-28T17:43:08.077Z,24.00
2022-10-28T17:45:35.130Z,23.90
2022-10-28T17:48:02.148Z,23.90
2022-10-28T17:50:29.180Z,23.90
2022-10-28T17:52:56.644Z,23.90
2022-10-28T17:55:23.938Z,23.90
2022-10-28T17:57:51.041Z,23.90
2022-10-28T18:00:18.150Z,23.90
2022-10-28T18:02:45.252Z,23.90
2022-10-28T18:05:12.479Z,23.80
2022-10-28T18:07:40.619Z,23.90
2022-10-28T18:10:08.292Z,23.80
2022-10-28T18:12:35.311Z,23.90
2022-10-28T18:15:02.353Z,23.80
2022-10-28T18:17:29.456Z,23.80
2022-10-28T18:19:58.024Z,23.80
2022-10-28T18:24:54.204Z,23.80
2022-10-28T18:27:21.189Z,23.80
2022-10-28T18:29:48.209Z,23.80
2022-10-28T18:32:16.639Z,23.80
2022-10-28T18:34:43.679Z,23.70
2022-10-28T18:37:11.861Z,23.70
2022-10-28T18:39:38.853Z,23.70
2022-10-28T18:42:06.000Z,23.80
2022-10-28T18:44:33.432Z,23.70
2022-10-28T18:47:00.597Z,23.70
2022-10-28T18:49:27.660Z,23.70
2022-10-28T18:51:54.716Z,23.70
2022-10-28T18:54:21.716Z,23.70
2022-10-28T18:56:50.539Z,23.70
2022-10-28T18:59:19.528Z,23.70
2022-10-28T19:01:47.220Z,23.70
2022-10-28T19:04:15.112Z,23.70
2022-10-28T19:06:42.223Z,23.70
2022-10-28T19:09:09.367Z,23.70
2022-10-28T19:11:36.396Z,23.70
2022-10-28T19:14:06.084Z,23.70
2022-10-28T19:16:34.520Z,23.70
2022-10-28T19:19:03.500Z,23.70
2022-10-28T19:21:30.778Z,23.70
2022-10-28T19:23:57.796Z,23.70
2022-10-28T19:26:25.100Z,23.70
2022-10-28T19:28:52.713Z,23.70
2022-10-28T19:31:22.785Z,23.70
2022-10-28T19:33:51.468Z,23.70
2022-10-28T19:36:23.178Z,23.60
2022-10-28T19:38:53.630Z,23.60
2022-10-28T19:41:23.023Z,23.60
2022-10-28T19:43:58.424Z,23.60
2022-10-28T19:46:30.441Z,23.60
2022-10-28T19:48:59.389Z,23.60
2022-10-28T19:51:28.909Z,23.60
2022-10-28T19:53:58.197Z,23.60
2022-10-28T19:56:25.964Z,23.60
2022-10-28T19:58:55.421Z,23.60
2022-10-28T20:01:25.189Z,23.60
2022-10-28T20:03:53.774Z,23.60
2022-10-28T20:06:22.884Z,23.60
2022-10-28T20:08:50.423Z,23.60
2022-10-28T20:11:24.788Z,23.60
2022-10-28T20:13:56.456Z,23.60
2022-10-28T20:16:24.592Z,23.60
2022-10-28T20:18:51.771Z,23.60
2022-10-28T20:21:20.991Z,23.60
2022-10-28T20:26:18.153Z,23.60
2022-10-28T20:28:45.213Z,23.60
2022-10-28T20:31:15.388Z,23.50
2022-10-28T20:33:44.822Z,23.60
2022-10-28T20:36:46.150Z,23.50
2022-10-28T20:39:15.675Z,23.50
2022-10-28T20:41:44.909Z,23.50
2022-10-28T20:44:12.157Z,23.50
2022-10-28T20:46:39.876Z,23.50
2022-10-28T20:49:08.878Z,23.50
2022-10-28T20:51:36.682Z,23.50
2022-10-28T20:54:03.804Z,23.50
2022-10-28T20:56:33.088Z,23.50
2022-10-28T20:59:00.502Z,23.50
2022-10-28T21:01:36.772Z,23.50
2022-10-28T21:04:07.412Z,23.50
2022-10-28T21:06:35.997Z,23.50
2022-10-28T21:09:05.199Z,23.50
2022-10-28T21:11:32.584Z,23.50
2022-10-28T21:14:01.312Z,23.50
2022-10-28T21:16:29.791Z,23.50
2022-10-28T21:18:56.855Z,23.50
2022-10-28T21:21:24.686Z,23.50
2022-10-28T21:23:52.042Z,23.50
2022-10-28T21:26:19.228Z,23.50
2022-10-28T21:28:52.790Z,23.50
2022-10-28T21:31:21.101Z,23.50
2022-10-28T21:36:22.025Z,23.50
2022-10-28T21:38:52.478Z,23.50
2022-10-28T21:41:21.260Z,23.50
2022-10-28T21:43:50.369Z,23.50
2022-10-28T21:46:19.279Z,23.40
2022-10-28T21:48:46.326Z,23.50
2022-10-28T21:51:15.463Z,23.40
2022-10-28T21:53:43.708Z,23.50
2022-10-28T21:56:19.780Z,23.40
2022-10-28T21:58:48.878Z,23.50
2022-10-28T22:01:19.645Z,23.40
2022-10-28T22:03:46.870Z,23.40
2022-10-28T22:06:14.212Z,23.40
2022-10-28T22:08:41.605Z,23.40
2022-10-28T22:11:12.653Z,23.40
2022-10-28T22:13:39.685Z,23.40
2022-10-28T22:16:10.224Z,23.40
2022-10-28T22:18:38.147Z,23.40
2022-10-28T22:21:11.637Z,23.40
2022-10-28T22:23:39.148Z,23.40
2022-10-28T22:26:08.699Z,23.40
2022-10-28T22:28:36.107Z,23.40
2022-10-28T22:31:06.895Z,23.40
2022-10-28T22:33:34.634Z,23.40
2022-10-28T22:36:04.836Z,23.40
2022-10-28T22:38:32.141Z,23.40
2022-10-28T22:41:11.340Z,23.40
2022-10-28T22:43:38.515Z,23.40
2022-10-28T22:46:05.878Z,23.40
2022-10-28T22:48:33.335Z,23.40
2022-10-28T22:51:01.173Z,23.40
2022-10-28T22:53:28.565Z,23.40
2022-10-28T22:55:56.556Z,23.40
2022-10-28T22:58:25.231Z,23.40
2022-10-28T23:00:53.257Z,23.40
2022-10-28T23:03:20.383Z,23.40
2022-10-28T23:05:47.408Z,23.40
2022-10-28T23:08:17.550Z,23.40
2022-10-28T23:10:44.586Z,23.40
2022-10-28T23:13:12.921Z,23.40
2022-10-28T23:15:40.037Z,23.40
2022-10-28T23:18:07.083Z,23.40
2022-10-28T23:20:35.819Z,23.40
2022-10-28T23:23:03.220Z,23.40
2022-10-28T23:25:30.588Z,23.40
2022-10-28T23:27:57.994Z,23.40
2022-10-28T23:30:25.278Z,23.40
2022-10-28T23:32:52.284Z,23.40
2022-10-28T23:35:19.269Z,23.40
2022-10-28T23:37:46.341Z,23.40
2022-10-28T23:40:13.392Z,23.40
2022-10-28T23:42:40.408Z,23.40
2022-10-28T23:45:09.625Z,23.40
2022-10-28T23:47:36.881Z,23.30
2022-10-28T23:50:04.415Z,23.30
2022-10-28T23:52:31.398Z,23.40
2022-10-28T23:54:58.455Z,23.30
2022-10-28T23:57:25.490Z,23.30
2022-10-28T23:59:53.704Z,23.40
